Time;durP1;ratioP1;P1;durP2;ratioP2;P2;SDS_P1;SDS_P2;PMS_P1;PMS_P2;Temp;Humidity;BMP_temperature;BMP_pressure;BME280_temperature;BME280_humidity;BME280_pressure;Samples;Min_cycle;Max_cycle;Signal;HPM_P1;HPM_P2
2024/02/06 00:02:09;;;;;;;5.60;1.50;;;;;;;8.51;43.22;98714.42;107990;1254;72657;-65
2024/02/06 00:04:36;;;;;;;5.20;1.60;;;;;;;8.56;43.35;98720.96;108129;1254;70162;-65
2024/02/06 00:07:08;;;;;;;7.80;1.90;;;;;;;8.58;43.19;98719.27;108113;1254;71162;-63
2024/02/06 00:09:50;;;;;;;4.00;1.50;;;;;;;8.74;42.76;98723.71;108016;1260;60643;-66
2024/02/06 00:12:17;;;;;;;5.10;1.90;;;;;;;8.74;42.84;98725.67;108027;1254;60413;-65
2024/02/06 00:14:45;;;;;;;6.20;1.70;;;;;;;8.59;42.99;98724.66;108022;1253;72564;-65
2024/02/06 00:17:12;;;;;;;8.00;1.70;;;;;;;8.58;42.89;98720.52;108050;1259;69399;-66
2024/02/06 00:19:40;;;;;;;12.90;1.60;;;;;;;8.55;42.93;98724.18;108020;1253;72677;-64
2024/02/06 00:22:08;;;;;;;7.80;2.10;;;;;;;8.44;42.94;98730.52;108053;1254;60613;-65
2024/02/06 00:24:35;;;;;;;3.50;1.50;;;;;;;8.38;43.19;98729.73;108004;1254;60309;-65
2024/02/06 00:27:03;;;;;;;8.70;1.90;;;;;;;8.37;43.24;98723.66;108043;1260;72616;-64
2024/02/06 00:29:30;;;;;;;4.70;1.60;;;;;;;8.28;43.15;98724.27;108088;1260;69986;-66
2024/02/06 00:31:58;;;;;;;8.40;1.90;;;;;;;8.26;43.70;98727.90;108000;1254;72750;-66
2024/02/06 00:34:26;;;;;;;4.60;1.50;;;;;;;8.32;43.51;98722.02;107916;1254;61091;-64
2024/02/06 00:36:53;;;;;;;5.00;1.50;;;;;;;8.19;43.45;98714.08;107991;1254;60310;-65
2024/02/06 00:39:21;;;;;;;6.00;1.70;;;;;;;8.27;43.57;98711.73;107918;1257;73150;-65
2024/02/06 00:41:48;;;;;;;6.00;1.80;;;;;;;8.26;43.28;98713.02;108063;1254;69657;-64
2024/02/06 00:44:17;;;;;;;4.40;1.80;;;;;;;8.18;43.83;98714.59;108019;1258;72748;-67
2024/02/06 00:46:45;;;;;;;5.30;1.70;;;;;;;8.13;43.90;98717.66;108102;1256;60447;-65
2024/02/06 00:49:12;;;;;;;4.90;2.00;;;;;;;8.22;43.89;98713.38;108036;1254;60358;-65
2024/02/06 00:51:41;;;;;;;6.00;1.90;;;;;;;8.38;43.77;98720.48;108041;1254;71826;-66
2024/02/06 00:54:09;;;;;;;5.60;1.60;;;;;;;8.35;43.79;98724.29;108035;1254;68998;-66
2024/02/06 00:56:36;;;;;;;7.70;1.70;;;;;;;8.48;43.88;98714.53;108000;1254;72150;-66
2024/02/06 00:59:04;;;;;;;2.90;1.70;;;;;;;8.47;43.90;98721.23;107969;1257;60471;-66
2024/02/06 01:01:31;;;;;;;7.20;1.70;;;;;;;8.32;44.14;98722.67;108007;1254;60300;-66
2024/02/06 01:03:59;;;;;;;5.80;1.70;;;;;;;8.39;44.40;98719.02;108029;1254;73916;-65
2024/02/06 01:06:27;;;;;;;11.60;2.30;;;;;;;8.48;43.96;98706.36;108018;1259;69343;-65
2024/02/06 01:08:56;;;;;;;7.40;1.90;;;;;;;8.45;44.29;98709.83;108065;1257;72636;-65
2024/02/06 01:11:23;;;;;;;8.10;1.90;;;;;;;8.51;44.22;98709.33;108001;1254;60355;-65
2024/02/06 01:13:52;;;;;;;6.40;2.20;;;;;;;8.56;44.19;98706.42;107968;1254;60242;-68
2024/02/06 01:16:19;;;;;;;9.70;2.10;;;;;;;8.41;44.68;98701.09;107974;1254;73884;-65
2024/02/06 01:18:47;;;;;;;6.60;2.00;;;;;;;8.46;44.68;98702.96;107880;1255;68807;-67
2024/02/06 01:21:15;;;;;;;5.50;2.10;;;;;;;8.61;44.60;98710.20;107944;1258;71408;-65
2024/02/06 01:23:42;;;;;;;10.10;2.30;;;;;;;8.76;44.52;98711.36;107946;1254;60554;-65
2024/02/06 01:26:12;;;;;;;8.10;1.90;;;;;;;8.63;44.73;98714.48;108023;1254;60550;-66
2024/02/06 01:28:42;;;;;;;6.80;2.20;;;;;;;8.71;44.89;98717.59;107990;1254;72857;-65
2024/02/06 01:31:10;;;;;;;10.00;2.80;;;;;;;8.77;44.82;98708.70;107992;1253;68946;-66
2024/02/06 01:33:37;;;;;;;6.00;2.20;;;;;;;8.56;45.13;98713.09;108078;1254;73566;-66
2024/02/06 01:36:05;;;;;;;7.30;2.80;;;;;;;8.66;45.19;98712.05;108204;1255;60460;-65
2024/02/06 01:38:33;;;;;;;9.40;2.20;;;;;;;8.71;45.26;98706.36;108087;1254;61060;-65
2024/02/06 01:41:00;;;;;;;8.50;2.30;;;;;;;8.75;45.12;98708.98;108069;1253;72671;-66
2024/02/06 01:43:27;;;;;;;17.40;3.80;;;;;;;8.78;45.35;98712.13;108082;1254;68925;-65
2024/02/06 01:45:55;;;;;;;12.90;3.00;;;;;;;8.78;45.24;98718.10;107997;1254;71624;-65
2024/02/06 01:48:23;;;;;;;8.90;2.50;;;;;;;8.88;45.26;98723.89;108034;1254;60459;-66
2024/02/06 01:50:52;;;;;;;5.80;2.10;;;;;;;8.89;45.23;98731.16;108046;1253;60341;-65
2024/02/06 01:53:20;;;;;;;6.50;2.60;;;;;;;8.81;45.28;98732.27;108107;1254;72579;-66
2024/02/06 01:55:48;;;;;;;13.50;2.50;;;;;;;8.85;45.22;98728.58;108065;1254;69260;-64
2024/02/06 01:58:16;;;;;;;9.00;2.60;;;;;;;8.75;45.22;98727.55;108057;1254;72780;-64
2024/02/06 02:00:43;;;;;;;8.50;2.50;;;;;;;8.72;45.40;98731.02;108018;1254;61127;-64
2024/02/06 02:03:11;;;;;;;9.10;2.70;;;;;;;8.62;45.52;98733.29;108026;1253;60667;-65
2024/02/06 02:05:40;;;;;;;8.10;2.70;;;;;;;8.50;45.66;98731.63;108028;1252;72636;-65
2024/02/06 02:08:07;;;;;;;9.00;2.30;;;;;;;8.55;45.60;98731.51;108160;1254;69954;-65
2024/02/06 02:10:35;;;;;;;10.90;2.30;;;;;;;8.61;45.34;98732.60;107899;1253;71359;-66
2024/02/06 02:13:04;;;;;;;9.40;2.50;;;;;;;8.58;45.52;98730.14;108068;1259;60370;-65
2024/02/06 02:15:31;;;;;;;9.30;2.90;;;;;;;8.56;45.62;98728.80;108105;1253;60357;-64
2024/02/06 02:17:59;;;;;;;9.20;2.40;;;;;;;8.53;45.62;98735.66;108045;1258;73848;-66
2024/02/06 02:20:27;;;;;;;10.60;2.40;;;;;;;8.60;45.50;98738.44;108064;1254;68856;-65
2024/02/06 02:22:54;;;;;;;9.20;2.50;;;;;;;8.62;45.42;98743.40;108041;1253;71896;-66
2024/02/06 02:25:22;;;;;;;10.00;2.70;;;;;;;8.65;45.45;98744.31;108087;1254;60933;-67
2024/02/06 02:27:50;;;;;;;8.30;2.60;;;;;;;8.62;45.43;98748.84;108049;1253;116868;-65
2024/02/06 02:31:13;;;;;;;13.50;2.60;;;;;;;6.73;49.72;98751.73;104918;1289;601108;-64
2024/02/06 02:33:41;;;;;;;10.40;2.40;;;;;;;8.09;46.57;98743.58;107285;1264;59235;-67
2024/02/06 02:36:10;;;;;;;10.70;2.70;;;;;;;8.26;46.13;98744.69;107199;1265;59788;-66
2024/02/06 02:38:39;;;;;;;10.90;2.60;;;;;;;8.39;45.78;98744.23;107221;1266;72125;-65
2024/02/06 02:41:07;;;;;;;8.50;2.40;;;;;;;8.40;45.66;98749.59;107203;1267;68877;-66
2024/02/06 02:43:34;;;;;;;11.70;3.00;;;;;;;8.19;46.11;98747.83;107185;1267;72712;-66
2024/02/06 02:46:02;;;;;;;7.60;2.20;;;;;;;8.12;46.10;98754.79;107272;1264;118031;-66
2024/02/06 02:48:30;;;;;;;11.50;3.10;;;;;;;8.10;46.12;98754.17;107333;1264;59009;-65
2024/02/06 02:50:57;;;;;;;6.50;2.40;;;;;;;8.25;45.80;98751.69;107355;1264;70334;-65
2024/02/06 02:53:25;;;;;;;5.30;1.90;;;;;;;8.35;45.61;98757.31;107376;1264;68617;-64
2024/02/06 02:55:52;;;;;;;6.40;2.30;;;;;;;8.49;45.58;98761.38;107327;1266;72813;-66
2024/02/06 02:58:20;;;;;;;6.30;2.60;;;;;;;8.44;45.59;98756.02;107370;1266;60928;-66
2024/02/06 03:00:47;;;;;;;19.10;3.80;;;;;;;8.30;45.75;98755.50;108008;1254;61173;-65
2024/02/06 03:03:15;;;;;;;15.50;4.50;;;;;;;8.45;45.55;98757.23;108067;1254;73153;-65
2024/02/06 03:05:43;;;;;;;16.20;4.40;;;;;;;8.36;45.35;98758.17;108047;1254;69348;-64
2024/02/06 03:08:10;;;;;;;11.00;3.70;;;;;;;8.19;45.73;98756.88;107971;1254;71210;-65
2024/02/06 03:10:38;;;;;;;12.40;3.60;;;;;;;8.20;45.79;98754.21;107879;1258;60011;-67
2024/02/06 03:13:06;;;;;;;9.50;3.60;;;;;;;8.15;45.82;98749.56;107968;1254;59963;-65
2024/02/06 03:15:33;;;;;;;18.70;3.60;;;;;;;8.23;45.93;98746.73;107976;1254;70826;-66
2024/02/06 03:18:01;;;;;;;12.20;3.20;;;;;;;8.23;45.73;98755.13;108025;1254;70108;-65
2024/02/06 03:20:29;;;;;;;8.70;2.40;;;;;;;8.27;45.84;98755.64;108009;1257;71677;-66
2024/02/06 03:22:56;;;;;;;10.50;3.00;;;;;;;8.41;45.36;98751.30;107959;1257;59529;-64
2024/02/06 03:25:24;;;;;;;6.50;2.50;;;;;;;8.36;45.39;98743.82;107871;1254;59637;-64
2024/02/06 03:27:51;;;;;;;7.00;2.60;;;;;;;8.48;45.24;98743.59;107976;1254;72942;-66
2024/02/06 03:30:19;;;;;;;12.90;3.10;;;;;;;8.42;45.15;98743.71;107874;1260;69008;-66
2024/02/06 03:32:53;;;;;;;11.90;2.80;;;;;;;8.25;45.56;98744.70;107889;1257;72169;-65
2024/02/06 03:35:21;;;;;;;6.00;2.30;;;;;;;8.02;45.95;98744.82;107852;1257;61681;-62
2024/02/06 03:37:49;;;;;;;13.30;2.60;;;;;;;7.91;46.09;98750.21;107760;1255;60134;-65
2024/02/06 03:40:17;;;;;;;11.40;2.50;;;;;;;8.09;46.02;98749.15;107876;1257;72124;-65
2024/02/06 03:42:44;;;;;;;10.70;2.30;;;;;;;8.16;46.03;98740.77;107800;1258;68883;-66
2024/02/06 03:45:12;;;;;;;9.20;2.50;;;;;;;8.30;45.50;98743.61;107749;1258;72684;-65
2024/02/06 03:47:40;;;;;;;12.60;2.70;;;;;;;8.17;45.75;98747.20;107685;1257;59974;-66
2024/02/06 03:50:08;;;;;;;10.10;2.70;;;;;;;8.18;45.66;98748.71;107807;1256;59883;-65
2024/02/06 03:52:36;;;;;;;9.80;2.20;;;;;;;8.17;45.78;98747.39;107793;1257;71721;-66
2024/02/06 03:55:04;;;;;;;15.30;3.30;;;;;;;8.26;45.61;98750.05;108175;1254;69494;-66
2024/02/06 03:57:33;;;;;;;16.70;3.20;;;;;;;8.32;45.36;98750.30;108071;1254;71780;-66
2024/02/06 04:00:00;;;;;;;14.80;2.80;;;;;;;8.46;44.94;98740.20;108049;1254;59739;-66
2024/02/06 04:02:30;;;;;;;7.90;2.40;;;;;;;8.57;44.75;98744.17;108076;1254;59407;-65
2024/02/06 04:04:58;;;;;;;7.70;2.30;;;;;;;8.59;44.62;98744.44;108083;1254;71034;-65
2024/02/06 04:07:26;;;;;;;10.60;2.90;;;;;;;8.57;44.71;98743.98;108094;1252;71904;-65
2024/02/06 04:09:53;;;;;;;8.50;2.80;;;;;;;8.54;44.69;98750.11;108018;1255;71943;-65
2024/02/06 04:12:21;;;;;;;12.00;2.70;;;;;;;8.52;44.57;98745.30;108062;1257;59562;-65
2024/02/06 04:14:49;;;;;;;14.50;2.50;;;;;;;8.47;44.58;98739.63;108044;1254;59924;-66
2024/02/06 04:17:16;;;;;;;8.10;2.10;;;;;;;8.53;44.38;98741.58;108066;1257;74272;-67
2024/02/06 04:19:44;;;;;;;9.60;2.90;;;;;;;8.57;44.46;98735.42;108091;1254;68880;-66
2024/02/06 04:22:12;;;;;;;14.60;3.20;;;;;;;8.65;44.23;98732.94;108073;1254;71468;-66
2024/02/06 04:24:40;;;;;;;8.00;3.50;;;;;;;8.70;44.23;98731.64;108054;1254;60888;-67
2024/02/06 04:27:07;;;;;;;12.40;3.80;;;;;;;8.73;44.29;98732.01;108075;1254;60085;-66
2024/02/06 04:29:35;;;;;;;13.60;3.60;;;;;;;8.69;43.99;98733.29;108193;1251;73269;-65
2024/02/06 04:32:03;;;;;;;10.70;3.10;;;;;;;8.67;44.11;98743.30;108212;1251;69006;-65
2024/02/06 04:34:30;;;;;;;12.50;3.00;;;;;;;8.68;44.02;98739.06;108265;1251;72888;-66
2024/02/06 04:36:58;;;;;;;13.40;3.50;;;;;;;8.72;43.94;98739.27;108260;1256;60026;-66
2024/02/06 04:39:26;;;;;;;13.80;3.60;;;;;;;8.64;44.16;98738.04;108265;1251;59400;-67
2024/02/06 04:41:54;;;;;;;12.90;3.70;;;;;;;8.45;44.28;98746.35;108289;1251;73027;-68
2024/02/06 04:44:21;;;;;;;14.30;3.80;;;;;;;8.55;44.24;98750.60;108315;1251;68797;-66
2024/02/06 04:46:49;;;;;;;14.90;3.50;;;;;;;8.60;44.27;98753.48;108246;1251;71051;-65
2024/02/06 04:49:17;;;;;;;9.30;3.10;;;;;;;8.64;44.25;98750.85;108096;1253;59605;-65
2024/02/06 04:51:45;;;;;;;13.70;3.60;;;;;;;8.72;44.42;98753.39;108118;1258;59560;-67
2024/02/06 04:54:13;;;;;;;11.10;3.40;;;;;;;8.72;43.97;98749.38;108173;1251;71348;-66
2024/02/06 04:56:40;;;;;;;14.20;4.20;;;;;;;8.76;44.14;98755.65;108197;1257;69486;-66
2024/02/06 04:59:08;;;;;;;16.60;4.10;;;;;;;8.58;44.56;98760.05;108187;1251;71339;-66
2024/02/06 05:01:35;;;;;;;11.70;3.10;;;;;;;8.63;44.41;98757.20;108186;1253;59630;-66
2024/02/06 05:04:03;;;;;;;13.70;3.90;;;;;;;8.81;44.29;98756.23;108202;1256;59624;-66
2024/02/06 05:06:31;;;;;;;9.00;3.50;;;;;;;8.82;44.09;98752.52;108233;1251;71734;-67
2024/02/06 05:08:59;;;;;;;13.70;3.90;;;;;;;8.67;43.94;98759.96;108256;1251;70364;-65
2024/02/06 05:11:26;;;;;;;12.10;4.30;;;;;;;8.48;44.29;98761.44;108196;1251;72430;-66
2024/02/06 05:13:54;;;;;;;9.70;3.80;;;;;;;8.15;44.89;98769.67;108222;1251;60044;-67
2024/02/06 05:16:21;;;;;;;13.80;4.40;;;;;;;8.20;45.18;98780.60;108162;1251;59532;-66
2024/02/06 05:18:49;;;;;;;17.70;4.30;;;;;;;8.17;45.42;98786.52;108182;1251;73007;-66
2024/02/06 05:21:16;;;;;;;19.90;5.40;;;;;;;8.26;45.12;98782.97;108226;1256;69209;-66
2024/02/06 05:23:44;;;;;;;17.00;4.60;;;;;;;8.34;45.11;98780.14;108183;1251;72486;-66
2024/02/06 05:26:12;;;;;;;12.50;4.10;;;;;;;8.39;45.12;98772.70;108155;1253;61457;-65
2024/02/06 05:28:40;;;;;;;16.10;4.20;;;;;;;8.46;45.14;98765.91;108161;1251;59738;-66
2024/02/06 05:31:08;;;;;;;14.80;4.90;;;;;;;8.47;44.99;98773.04;108229;1251;72277;-66
2024/02/06 05:33:35;;;;;;;12.00;4.00;;;;;;;8.35;45.08;98768.35;108097;1254;70267;-66
2024/02/06 05:36:03;;;;;;;13.90;5.00;;;;;;;8.50;45.02;98762.54;108072;1254;71407;-65
2024/02/06 05:38:31;;;;;;;20.80;5.50;;;;;;;8.55;44.93;98762.81;107998;1252;59612;-66
2024/02/06 05:40:58;;;;;;;12.70;4.00;;;;;;;8.58;44.99;98763.17;108052;1254;59506;-65
2024/02/06 05:43:26;;;;;;;13.90;4.70;;;;;;;8.56;45.12;98763.80;108123;1254;73117;-66
2024/02/06 05:45:54;;;;;;;14.10;4.10;;;;;;;8.66;44.86;98765.79;108151;1254;68858;-67
2024/02/06 05:48:21;;;;;;;11.00;4.10;;;;;;;8.85;44.53;98759.90;108123;1254;72875;-65
2024/02/06 05:50:49;;;;;;;28.10;4.80;;;;;;;8.75;44.60;98757.26;108030;1254;61151;-65
2024/02/06 05:53:16;;;;;;;16.20;4.80;;;;;;;8.55;44.63;98759.14;108138;1254;60191;-67
2024/02/06 05:55:44;;;;;;;16.40;5.20;;;;;;;8.73;44.86;98754.41;108074;1253;72088;-67
2024/02/06 05:58:11;;;;;;;17.10;4.40;;;;;;;8.92;44.23;98751.30;108048;1253;70047;-68
2024/02/06 06:00:39;;;;;;;20.20;5.50;;;;;;;8.95;44.08;98749.75;108037;1254;70336;-66
2024/02/06 06:03:07;;;;;;;22.70;5.70;;;;;;;8.94;44.23;98758.39;107956;1253;60122;-66
2024/02/06 06:05:34;;;;;;;15.90;5.00;;;;;;;8.90;44.03;98759.82;108057;1254;60106;-65
2024/02/06 06:08:03;;;;;;;15.20;5.20;;;;;;;8.82;44.22;98758.85;108086;1254;73076;-65
2024/02/06 06:10:31;;;;;;;16.50;5.10;;;;;;;8.91;44.09;98755.77;108075;1253;70389;-66
2024/02/06 06:12:58;;;;;;;19.60;5.20;;;;;;;8.99;43.91;98752.68;108001;1254;72487;-67
2024/02/06 06:15:26;;;;;;;20.10;4.70;;;;;;;9.05;43.98;98753.13;108017;1253;61567;-65
2024/02/06 06:17:53;;;;;;;17.00;4.90;;;;;;;9.15;43.81;98757.80;108109;1257;60024;-66
2024/02/06 06:20:21;;;;;;;17.40;5.30;;;;;;;9.16;43.97;98754.98;108062;1252;73039;-66
2024/02/06 06:22:49;;;;;;;19.90;5.10;;;;;;;9.09;44.13;98760.79;108080;1253;70502;-66
2024/02/06 06:25:17;;;;;;;16.70;4.90;;;;;;;9.13;43.98;98768.09;108047;1254;71440;-66
2024/02/06 06:27:47;;;;;;;13.40;4.80;;;;;;;9.17;43.93;98771.39;108163;1253;59983;-66
2024/02/06 06:30:15;;;;;;;19.20;4.90;;;;;;;9.14;43.91;98772.57;108162;1252;59551;-65
2024/02/06 06:32:42;;;;;;;20.30;5.50;;;;;;;9.22;44.00;98778.45;108159;1256;72996;-66
2024/02/06 06:35:10;;;;;;;17.90;4.40;;;;;;;9.23;44.21;98778.90;108209;1256;68824;-65
2024/02/06 06:37:37;;;;;;;12.30;4.40;;;;;;;9.23;43.97;98781.90;108246;1251;71701;-66
2024/02/06 06:40:08;;;;;;;20.60;5.90;;;;;;;9.30;43.89;98778.58;108166;1251;60897;-67
2024/02/06 06:42:36;;;;;;;15.00;4.70;;;;;;;9.39;43.81;98782.09;108142;1251;60575;-66
2024/02/06 06:45:04;;;;;;;21.60;5.20;;;;;;;9.40;43.84;98780.63;108183;1251;73911;-66
2024/02/06 06:47:32;;;;;;;16.90;5.40;;;;;;;9.39;44.00;98783.16;108228;1251;69452;-66
2024/02/06 06:49:59;;;;;;;14.60;4.70;;;;;;;9.28;43.90;98784.25;108249;1252;71378;-66
2024/02/06 06:52:29;;;;;;;14.00;4.30;;;;;;;9.52;43.87;98774.40;108192;1251;61029;-66
2024/02/06 06:54:57;;;;;;;18.70;5.20;;;;;;;9.64;43.81;98769.56;108022;1251;60455;-66
2024/02/06 06:57:25;;;;;;;10.60;4.20;;;;;;;9.63;43.69;98771.70;108133;1251;72557;-66
2024/02/06 06:59:53;;;;;;;13.20;3.80;;;;;;;9.52;43.97;98778.77;108097;1251;68996;-66
2024/02/06 07:02:20;;;;;;;13.60;4.20;;;;;;;9.33;44.44;98779.45;108163;1251;74881;-66
2024/02/06 07:04:48;;;;;;;17.30;5.10;;;;;;;9.52;44.20;98778.61;108130;1252;62872;-66
2024/02/06 07:07:17;;;;;;;12.00;4.00;;;;;;;9.44;44.40;98777.44;108229;1251;60262;-66
2024/02/06 07:09:45;;;;;;;19.20;5.50;;;;;;;9.36;44.81;98781.01;108405;1251;74023;-67
2024/02/06 07:12:12;;;;;;;16.70;4.70;;;;;;;9.46;44.58;98783.32;108279;1251;69934;-67
2024/02/06 07:14:40;;;;;;;15.30;4.60;;;;;;;9.55;44.51;98779.51;108221;1251;71393;-67
2024/02/06 07:17:09;;;;;;;12.60;4.00;;;;;;;9.54;44.56;98778.14;108177;1254;60486;-66
2024/02/06 07:19:37;;;;;;;17.80;4.70;;;;;;;9.57;44.80;98777.63;108228;1251;60303;-67
2024/02/06 07:22:05;;;;;;;11.00;4.10;;;;;;;9.64;44.84;98777.21;108243;1251;73942;-66
2024/02/06 07:24:32;;;;;;;17.50;5.40;;;;;;;9.71;44.71;98779.49;108188;1251;69410;-66
2024/02/06 07:27:00;;;;;;;18.20;5.30;;;;;;;9.98;44.49;98780.98;108171;1251;70088;-67
2024/02/06 07:29:28;;;;;;;15.10;5.20;;;;;;;10.01;44.22;98783.79;108253;1251;60480;-66
2024/02/06 07:31:55;;;;;;;16.50;5.10;;;;;;;9.99;44.41;98781.42;108195;1251;60339;-67
2024/02/06 07:34:23;;;;;;;16.30;4.50;;;;;;;10.04;44.47;98780.81;108049;1254;72534;-68
2024/02/06 07:36:53;;;;;;;16.10;5.10;;;;;;;9.76;44.85;98779.55;108045;1253;68650;-67
2024/02/06 07:39:21;;;;;;;14.90;5.30;;;;;;;9.77;45.10;98775.63;108091;1257;71425;-66
2024/02/06 07:41:49;;;;;;;17.10;4.90;;;;;;;9.84;45.01;98777.88;108045;1254;60871;-65
2024/02/06 07:44:17;;;;;;;14.10;4.30;;;;;;;9.92;44.96;98781.80;108096;1252;60348;-67
2024/02/06 07:46:45;;;;;;;15.10;5.00;;;;;;;9.94;45.24;98785.94;108162;1252;73829;-67
2024/02/06 07:49:12;;;;;;;14.50;4.80;;;;;;;10.01;45.38;98787.61;108028;1254;69004;-67
2024/02/06 07:51:41;;;;;;;17.60;5.50;;;;;;;10.01;45.56;98790.29;108035;1254;72762;-68
2024/02/06 07:54:09;;;;;;;14.20;4.60;;;;;;;10.27;45.24;98783.93;107973;1254;60371;-67
2024/02/06 07:56:37;;;;;;;14.30;4.40;;;;;;;10.42;45.25;98785.16;108073;1253;59232;-67
2024/02/06 07:59:05;;;;;;;19.40;5.50;;;;;;;10.34;45.55;98783.70;108140;1254;73854;-66
2024/02/06 08:01:33;;;;;;;13.60;4.60;;;;;;;10.16;46.06;98778.38;108081;1254;70078;-67
2024/02/06 08:04:00;;;;;;;19.80;5.30;;;;;;;10.29;46.16;98783.30;108034;1253;72193;-67
2024/02/06 08:06:32;;;;;;;15.10;5.50;;;;;;;10.24;46.33;98786.48;108020;1253;60929;-67
2024/02/06 08:09:00;;;;;;;19.00;5.70;;;;;;;10.00;46.88;98792.06;108040;1252;60354;-67
2024/02/06 08:11:27;;;;;;;14.40;5.50;;;;;;;9.98;47.09;98788.89;108023;1254;72581;-67
2024/02/06 08:13:55;;;;;;;15.60;4.40;;;;;;;9.89;47.35;98789.36;108038;1252;70091;-67
2024/02/06 08:16:22;;;;;;;23.20;6.10;;;;;;;10.00;47.43;98788.07;108015;1253;71387;-68
2024/02/06 08:18:50;;;;;;;14.40;5.60;;;;;;;10.10;47.35;98786.26;108071;1254;60891;-67
2024/02/06 08:21:17;;;;;;;16.40;6.00;;;;;;;10.09;47.44;98777.91;108056;1253;60814;-67
2024/02/06 08:23:45;;;;;;;15.40;5.40;;;;;;;9.64;48.11;98782.66;108083;1254;72888;-67
2024/02/06 08:26:12;;;;;;;13.80;5.20;;;;;;;9.73;48.18;98784.10;108136;1254;68838;-67
2024/02/06 08:28:40;;;;;;;16.40;6.00;;;;;;;9.83;48.26;98779.15;108122;1254;71554;-67
2024/02/06 08:31:09;;;;;;;17.30;6.60;;;;;;;10.40;47.22;98784.39;108125;1254;59562;-67
2024/02/06 08:33:36;;;;;;;20.60;5.80;;;;;;;10.74;46.57;98777.87;108227;1251;60233;-67
2024/02/06 08:36:05;;;;;;;99.00;12.10;;;;;;;10.85;46.13;98778.24;108266;1251;74010;-65
2024/02/06 08:38:33;;;;;;;95.10;11.40;;;;;;;10.82;45.95;98778.25;108294;1251;72866;-69
2024/02/06 08:41:01;;;;;;;85.00;12.50;;;;;;;10.95;45.66;98781.52;108154;1251;71924;-65
2024/02/06 08:43:30;;;;;;;54.40;7.70;;;;;;;10.97;45.57;98786.70;108190;1251;62084;-67
2024/02/06 08:46:15;;;;;;;13.50;4.40;;;;;;;11.03;45.01;98787.21;108187;1251;60746;-67
2024/02/06 08:48:43;;;;;;;12.40;4.70;;;;;;;10.93;45.16;98794.98;108151;1251;76055;-67
2024/02/06 08:51:12;;;;;;;25.70;7.40;;;;;;;11.02;44.83;98794.11;108145;1256;70672;-67
2024/02/06 08:53:39;;;;;;;20.20;6.00;;;;;;;10.81;44.85;98798.52;108173;1253;71825;-67
2024/02/06 08:56:07;;;;;;;19.70;6.80;;;;;;;10.62;45.02;98792.98;108203;1254;60325;-67
2024/02/06 08:58:35;;;;;;;23.50;6.30;;;;;;;10.77;44.86;98792.10;108245;1251;60459;-67
2024/02/06 09:01:02;;;;;;;15.00;5.40;;;;;;;10.88;45.07;98794.61;108252;1251;76566;-68
2024/02/06 09:03:31;;;;;;;20.80;5.30;;;;;;;10.84;44.72;98790.27;108216;1251;72408;-68
2024/02/06 09:05:58;;;;;;;15.60;4.90;;;;;;;10.76;44.59;98792.83;108265;1251;72261;-67
2024/02/06 09:08:26;;;;;;;18.20;5.70;;;;;;;10.79;44.76;98790.05;108186;1251;60572;-67
2024/02/06 09:10:54;;;;;;;15.20;5.40;;;;;;;10.81;44.78;98793.45;108213;1251;60462;-68
2024/02/06 09:13:22;;;;;;;17.40;4.80;;;;;;;10.92;44.74;98788.92;108176;1251;73928;-67
2024/02/06 09:15:51;;;;;;;11.80;4.10;;;;;;;11.02;44.57;98792.52;108111;1256;72590;-66
2024/02/06 09:18:19;;;;;;;15.70;4.30;;;;;;;11.04;44.78;98795.38;108220;1251;75043;-67
2024/02/06 09:20:48;;;;;;;13.60;4.20;;;;;;;11.02;44.65;98794.98;108245;1253;61360;-68
2024/02/06 09:23:16;;;;;;;9.70;3.80;;;;;;;11.12;44.60;98794.73;108282;1251;60386;-66
2024/02/06 09:25:45;;;;;;;14.50;4.00;;;;;;;11.17;44.79;98796.02;108241;1251;74752;-67
2024/02/06 09:28:14;;;;;;;12.60;3.70;;;;;;;11.24;44.59;98792.05;108184;1251;72528;-67
2024/02/06 09:30:42;;;;;;;17.70;4.10;;;;;;;11.13;44.51;98787.61;108169;1253;72779;-66
2024/02/06 09:33:09;;;;;;;10.00;3.30;;;;;;;10.93;44.61;98783.58;108173;1251;61293;-66
2024/02/06 09:35:37;;;;;;;11.90;4.20;;;;;;;10.98;44.90;98783.80;108151;1251;60315;-67
2024/02/06 09:38:05;;;;;;;15.10;3.60;;;;;;;11.07;45.13;98779.92;108202;1251;73978;-67
2024/02/06 09:40:33;;;;;;;10.30;3.60;;;;;;;11.03;45.19;98780.38;108137;1255;72361;-68
2024/02/06 09:43:00;;;;;;;6.20;3.10;;;;;;;11.10;44.91;98779.20;108168;1251;72777;-67
2024/02/06 09:45:31;;;;;;;16.20;4.40;;;;;;;11.15;45.06;98781.00;108240;1254;60931;-68
2024/02/06 09:47:59;;;;;;;9.60;3.50;;;;;;;11.34;45.01;98787.27;108149;1251;60348;-67
2024/02/06 09:50:26;;;;;;;8.50;3.40;;;;;;;11.36;44.98;98786.23;108224;1251;76138;-67
2024/02/06 09:52:54;;;;;;;11.50;3.60;;;;;;;11.51;44.83;98781.26;108216;1251;72647;-67
2024/02/06 09:55:21;;;;;;;9.70;3.50;;;;;;;11.80;44.50;98780.13;108192;1251;72959;-68
2024/02/06 09:57:49;;;;;;;9.80;3.80;;;;;;;11.87;44.49;98779.02;108128;1251;60641;-67
2024/02/06 10:00:18;;;;;;;12.70;4.80;;;;;;;11.99;44.17;98775.09;108210;1251;60168;-67
2024/02/06 10:02:47;;;;;;;11.80;4.10;;;;;;;12.05;43.81;98776.30;108161;1251;76239;-67
2024/02/06 10:05:20;;;;;;;10.50;4.00;;;;;;;11.95;43.42;98774.85;108261;1251;70005;-68
2024/02/06 10:07:48;;;;;;;9.20;3.70;;;;;;;11.97;43.64;98773.34;108237;1251;72067;-67
2024/02/06 10:10:18;;;;;;;16.80;3.40;;;;;;;12.04;43.57;98769.33;108223;1251;60488;-67
2024/02/06 10:12:45;;;;;;;8.60;3.70;;;;;;;12.08;43.44;98770.30;108293;1251;60203;-67
2024/02/06 10:15:17;;;;;;;11.60;3.80;;;;;;;12.05;43.47;98767.03;108190;1251;71979;-67
2024/02/06 10:17:45;;;;;;;7.30;2.90;;;;;;;12.07;43.60;98764.94;108280;1251;69282;-66
2024/02/06 10:20:13;;;;;;;9.10;3.30;;;;;;;12.19;43.39;98760.96;108249;1252;73670;-68
2024/02/06 10:22:41;;;;;;;11.60;3.90;;;;;;;12.18;43.39;98756.47;108240;1251;60871;-66
2024/02/06 10:25:10;;;;;;;10.00;3.50;;;;;;;12.19;43.21;98757.48;108233;1251;60858;-67
2024/02/06 10:27:40;;;;;;;12.60;4.00;;;;;;;12.31;43.18;98753.13;108160;1251;72663;-66
2024/02/06 10:30:10;;;;;;;9.10;3.00;;;;;;;12.49;43.13;98751.92;108061;1256;72699;-67
2024/02/06 10:32:38;;;;;;;9.00;3.20;;;;;;;12.42;42.91;98750.81;108084;1254;72874;-66
2024/02/06 10:35:07;;;;;;;7.30;3.10;;;;;;;12.40;42.97;98750.27;108197;1253;60393;-67
2024/02/06 10:37:38;;;;;;;9.30;3.40;;;;;;;12.43;43.36;98751.13;108162;1256;60559;-65
2024/02/06 10:40:06;;;;;;;9.10;4.40;;;;;;;12.41;43.84;98750.52;108143;1254;73837;-68
2024/02/06 10:42:34;;;;;;;11.80;4.30;;;;;;;12.38;44.16;98745.27;108030;1253;69642;-67
2024/02/06 10:45:21;;;;;;;11.80;5.90;;;;;;;12.28;43.98;98748.58;107994;1252;72681;-66
2024/02/06 10:47:58;;;;;;;16.20;7.60;;;;;;;12.01;44.45;98747.34;107951;1253;60354;-66
2024/02/06 10:50:27;;;;;;;17.50;7.90;;;;;;;12.08;44.64;98747.61;108070;1254;60424;-64
2024/02/06 10:52:55;;;;;;;17.80;8.70;;;;;;;12.06;44.86;98750.38;108097;1253;76113;-65
2024/02/06 10:55:23;;;;;;;18.40;9.60;;;;;;;11.97;45.19;98751.15;108141;1253;73087;-66
2024/02/06 10:58:06;;;;;;;20.00;9.10;;;;;;;11.57;46.01;98753.85;108109;1254;73001;-66
2024/02/06 11:00:35;;;;;;;16.60;9.90;;;;;;;11.51;46.62;98750.30;108115;1257;63037;-67
2024/02/06 11:03:07;;;;;;;21.50;11.30;;;;;;;11.59;46.41;98747.76;108114;1253;60529;-65
2024/02/06 11:05:44;;;;;;;21.20;11.90;;;;;;;11.34;46.86;98750.38;108107;1252;73040;-67
2024/02/06 11:08:14;;;;;;;24.60;13.30;;;;;;;11.18;47.09;98752.76;108042;1252;72758;-67
2024/02/06 11:10:43;;;;;;;23.90;12.10;;;;;;;10.64;48.43;98750.89;108210;1252;75317;-66
2024/02/06 11:13:24;;;;;;;20.50;11.40;;;;;;;10.72;48.56;98747.79;108040;1254;61300;-68
2024/02/06 11:15:52;;;;;;;23.00;12.10;;;;;;;11.09;48.06;98747.69;108154;1252;62249;-64
2024/02/06 11:18:21;;;;;;;18.90;10.50;;;;;;;10.87;48.35;98748.65;108147;1252;75009;-67
2024/02/06 11:20:53;;;;;;;23.60;11.80;;;;;;;10.87;48.44;98750.05;108165;1257;69127;-66
2024/02/06 11:23:20;;;;;;;25.00;12.70;;;;;;;10.82;48.67;98748.77;108090;1254;72285;-67
2024/02/06 11:25:48;;;;;;;20.10;11.70;;;;;;;10.66;49.06;98745.11;108073;1254;60440;-67
2024/02/06 11:28:16;;;;;;;26.90;13.50;;;;;;;10.67;49.07;98742.27;108138;1253;61852;-67
2024/02/06 11:30:44;;;;;;;26.30;12.80;;;;;;;10.74;49.23;98743.65;107967;1254;72395;-66